Time,TemperatureF,DewpointF,PressureIn,WindDirection,WindDirectionDegrees,WindSpeedMPH,WindSpeedGustMPH,Humidity,HourlyPrecipIn,Conditions,Clouds,dailyrainin,SolarRadiationWatts/m^2,SoftwareType,DateUTC
2013-01-31 00:03:00,21.0,14.0,-100.00,SSW,210,1.0,3.0,75,0.00,,,0.00,0.000000,,2013-01-31 05:03:00,
2013-01-31 00:11:00,21.0,14.0,-100.00,SSW,210,1.0,3.0,75,0.00,,,0.00,0.000000,,2013-01-31 05:11:00,
2013-01-31 00:21:00,21.0,14.0,-100.00,SSW,210,1.0,3.0,75,0.00,,,0.00,0.000000,,2013-01-31 05:21:00,
2013-01-31 00:31:00,21.0,14.0,-100.00,SSW,210,1.0,3.0,75,0.00,,,0.00,0.000000,,2013-01-31 05:31:00,
2013-01-31 09:02:00,22.0,16.0,-100.00,ESE,110,5.0,7.0,77,0.00,,,0.00,0.000000,,2013-01-31 14:02:00,
2013-01-31 09:11:00,22.0,16.0,-100.00,ESE,110,5.0,7.0,77,0.00,,,0.00,0.000000,,2013-01-31 14:11:00,
2013-01-31 09:21:00,22.0,16.0,-100.00,ESE,110,5.0,7.0,77,0.00,,,0.00,0.000000,,2013-01-31 14:21:00,
2013-01-31 09:31:00,22.0,16.0,-100.00,ESE,110,5.0,7.0,77,0.00,,,0.00,0.000000,,2013-01-31 14:31:00,
2013-01-31 09:52:00,24.0,18.0,-100.00,SE,135,3.0,5.0,78,0.00,,,0.00,2.000000,,2013-01-31 14:52:00,
2013-01-31 10:03:00,24.0,18.0,-100.00,SE,135,3.0,5.0,78,0.00,,,0.00,2.000000,,2013-01-31 15:03:00,
2013-01-31 10:12:00,24.0,18.0,-100.00,SE,135,3.0,5.0,78,0.00,,,0.00,2.000000,,2013-01-31 15:12:00,
2013-01-31 10:22:00,24.0,18.0,-100.00,SE,135,3.0,5.0,78,0.00,,,0.00,2.000000,,2013-01-31 15:22:00,
2013-01-31 10:32:00,24.0,18.0,-100.00,SE,135,3.0,5.0,78,0.00,,,0.00,2.000000,,2013-01-31 15:32:00,
2013-01-31 10:52:00,25.0,18.0,-100.00,East,81,5.0,5.0,73,0.00,,,0.00,134.000000,,2013-01-31 15:52:00,
2013-01-31 11:03:00,25.0,18.0,-100.00,East,81,5.0,5.0,73,0.00,,,0.00,134.000000,,2013-01-31 16:03:00,
2013-01-31 11:12:00,25.0,18.0,-100.00,East,81,5.0,5.0,73,0.00,,,0.00,134.000000,,2013-01-31 16:12:00,
2013-01-31 11:21:00,25.0,18.0,-100.00,East,81,5.0,5.0,73,0.00,,,0.00,134.000000,,2013-01-31 16:21:00,
2013-01-31 11:32:00,25.0,18.0,-100.00,East,81,5.0,5.0,73,0.00,,,0.00,134.000000,,2013-01-31 16:32:00,
2013-01-31 11:52:00,30.0,20.0,-100.00,East,84,2.0,6.0,66,0.00,,,0.00,306.000000,,2013-01-31 16:52:00,
2013-01-31 12:02:00,30.0,20.0,-100.00,East,84,2.0,6.0,66,0.00,,,0.00,306.000000,,2013-01-31 17:02:00,
2013-01-31 12:12:00,30.0,20.0,-100.00,East,84,2.0,6.0,66,0.00,,,0.00,306.000000,,2013-01-31 17:12:00,
2013-01-31 12:22:00,30.0,20.0,-100.00,East,84,2.0,6.0,66,0.00,,,0.00,306.000000,,2013-01-31 17:22:00,
2013-01-31 12:31:00,30.0,20.0,-100.00,East,84,2.0,6.0,66,0.00,,,0.00,306.000000,,2013-01-31 17:31:00,
2013-01-31 12:53:00,39.0,22.0,-100.00,East,94,0.0,5.0,50,0.00,,,0.00,455.000000,,2013-01-31 17:53:00,
2013-01-31 13:02:00,39.0,22.0,-100.00,East,94,0.0,5.0,50,0.00,,,0.00,455.000000,,2013-01-31 18:02:00,
2013-01-31 13:12:00,39.0,22.0,-100.00,East,94,0.0,5.0,50,0.00,,,0.00,455.000000,,2013-01-31 18:12:00,
2013-01-31 13:21:00,39.0,22.0,-100.00,East,94,0.0,5.0,50,0.00,,,0.00,455.000000,,2013-01-31 18:21:00,
2013-01-31 13:31:00,39.0,22.0,-100.00,East,94,0.0,5.0,50,0.00,,,0.00,455.000000,,2013-01-31 18:31:00,
2013-01-31 13:52:00,35.0,20.0,-100.00,NE,35,3.0,4.0,54,0.01,,,0.01,291.000000,,2013-01-31 18:52:00,
2013-01-31 14:02:00,35.0,20.0,-100.00,NE,35,3.0,4.0,54,0.01,,,0.01,291.000000,,2013-01-31 19:02:00,
2013-01-31 14:11:00,35.0,20.0,-100.00,NE,35,3.0,4.0,54,0.01,,,0.01,291.000000,,2013-01-31 19:11:00,
2013-01-31 14:21:00,35.0,20.0,-100.00,NE,35,3.0,4.0,54,0.01,,,0.01,291.000000,,2013-01-31 19:21:00,
2013-01-31 14:32:00,35.0,20.0,-100.00,NE,35,3.0,4.0,54,0.01,,,0.01,291.000000,,2013-01-31 19:32:00,
2013-01-31 14:52:00,36.0,20.0,-100.00,NE,48,4.0,6.0,52,0.00,,,0.01,649.000000,,2013-01-31 19:52:00,
2013-01-31 15:02:00,36.0,20.0,-100.00,NE,48,4.0,6.0,52,0.00,,,0.01,649.000000,,2013-01-31 20:02:00,
2013-01-31 15:11:00,36.0,20.0,-100.00,NE,48,4.0,6.0,52,0.00,,,0.01,649.000000,,2013-01-31 20:11:00,
2013-01-31 15:21:00,36.0,20.0,-100.00,NE,48,4.0,6.0,52,0.00,,,0.01,649.000000,,2013-01-31 20:21:00,
2013-01-31 15:31:00,36.0,20.0,-100.00,NE,48,4.0,6.0,52,0.00,,,0.01,649.000000,,2013-01-31 20:31:00,
2013-01-31 15:52:00,36.0,21.0,-100.00,ENE,72,4.0,7.0,54,0.00,,,0.01,667.000000,,2013-01-31 20:52:00,
2013-01-31 16:02:00,36.0,21.0,-100.00,ENE,72,4.0,7.0,54,0.00,,,0.01,667.000000,,2013-01-31 21:02:00,
2013-01-31 16:12:00,36.0,21.0,-100.00,ENE,72,4.0,7.0,54,0.00,,,0.01,667.000000,,2013-01-31 21:12:00,
2013-01-31 16:21:00,36.0,21.0,-100.00,ENE,72,4.0,7.0,54,0.00,,,0.01,667.000000,,2013-01-31 21:21:00,
2013-01-31 16:31:00,36.0,21.0,-100.00,ENE,72,4.0,7.0,54,0.00,,,0.01,667.000000,,2013-01-31 21:31:00,
2013-01-31 16:52:00,39.0,20.0,-100.00,WSW,257,7.0,13.0,47,0.00,,,0.01,587.000000,,2013-01-31 21:52:00,
2013-01-31 17:02:00,39.0,20.0,-100.00,WSW,257,7.0,13.0,47,0.00,,,0.01,587.000000,,2013-01-31 22:02:00,
2013-01-31 17:11:00,39.0,20.0,-100.00,WSW,257,7.0,13.0,47,0.00,,,0.01,587.000000,,2013-01-31 22:11:00,
2013-01-31 17:22:00,39.0,20.0,-100.00,WSW,257,7.0,13.0,47,0.00,,,0.01,587.000000,,2013-01-31 22:22:00,
2013-01-31 17:32:00,39.0,20.0,-100.00,WSW,257,7.0,13.0,47,0.00,,,0.01,587.000000,,2013-01-31 22:32:00,
2013-01-31 17:52:00,38.0,20.0,-100.00,WSW,254,8.0,13.0,48,0.00,,,0.01,449.000000,,2013-01-31 22:52:00,
2013-01-31 18:02:00,38.0,20.0,-100.00,WSW,254,8.0,13.0,48,0.00,,,0.01,449.000000,,2013-01-31 23:02:00,
2013-01-31 18:12:00,38.0,20.0,-100.00,WSW,254,8.0,13.0,48,0.00,,,0.01,449.000000,,2013-01-31 23:12:00,
2013-01-31 18:21:00,38.0,20.0,-100.00,WSW,254,8.0,13.0,48,0.00,,,0.01,449.000000,,2013-01-31 23:21:00,
2013-01-31 18:31:00,38.0,20.0,-100.00,WSW,254,8.0,13.0,48,0.00,,,0.01,449.000000,,2013-01-31 23:31:00,
2013-01-31 18:52:00,35.0,21.0,-100.00,WSW,251,4.0,10.0,56,0.00,,,0.01,252.000000,,2013-01-31 23:52:00,
2013-01-31 19:01:00,35.0,21.0,-100.00,WSW,251,4.0,10.0,56,0.00,,,0.01,252.000000,,2013-02-01 00:01:00,
2013-01-31 19:11:00,35.0,21.0,-100.00,WSW,251,4.0,10.0,56,0.00,,,0.01,252.000000,,2013-02-01 00:11:00,
2013-01-31 19:21:00,35.0,21.0,-100.00,WSW,251,4.0,10.0,56,0.00,,,0.01,252.000000,,2013-02-01 00:21:00,
2013-01-31 19:31:00,35.0,21.0,-100.00,WSW,251,4.0,10.0,56,0.00,,,0.01,252.000000,,2013-02-01 00:31:00,
2013-01-31 19:52:00,33.0,20.0,-100.00,West,263,3.0,7.0,58,0.00,,,0.01,55.000000,,2013-02-01 00:52:00,
2013-01-31 20:01:00,33.0,20.0,-100.00,West,263,3.0,7.0,58,0.00,,,0.01,55.000000,,2013-02-01 01:01:00,
2013-01-31 20:11:00,33.0,20.0,-100.00,West,263,3.0,7.0,58,0.00,,,0.01,55.000000,,2013-02-01 01:11:00,
2013-01-31 20:21:00,33.0,20.0,-100.00,West,263,3.0,7.0,58,0.00,,,0.01,55.000000,,2013-02-01 01:21:00,
2013-01-31 20:31:00,33.0,20.0,-100.00,West,263,3.0,7.0,58,0.00,,,0.01,55.000000,,2013-02-01 01:31:00,
2013-01-31 20:52:00,30.0,18.0,-100.00,NW,310,5.0,7.0,60,0.00,,,-99.99,1.000000,,2013-02-01 01:52:00,
2013-01-31 21:01:00,30.0,18.0,-100.00,NW,310,5.0,7.0,60,0.00,,,-99.99,1.000000,,2013-02-01 02:01:00,
2013-01-31 21:11:00,30.0,18.0,-100.00,NW,310,5.0,7.0,60,0.00,,,-99.99,1.000000,,2013-02-01 02:11:00,
2013-01-31 21:21:00,30.0,18.0,-100.00,NW,310,5.0,7.0,60,0.00,,,-99.99,1.000000,,2013-02-01 02:21:00,
2013-01-31 21:31:00,30.0,18.0,-100.00,NW,310,5.0,7.0,60,0.00,,,-99.99,1.000000,,2013-02-01 02:31:00,
2013-01-31 21:52:00,30.0,20.0,-100.00,SSE,154,1.0,6.0,66,0.00,,,0.01,0.000000,,2013-02-01 02:52:00,
2013-01-31 22:01:00,30.0,20.0,-100.00,SSE,154,1.0,6.0,66,0.00,,,0.01,0.000000,,2013-02-01 03:01:00,
2013-01-31 22:11:00,30.0,20.0,-100.00,SSE,154,1.0,6.0,66,0.00,,,0.01,0.000000,,2013-02-01 03:11:00,
2013-01-31 22:21:00,30.0,20.0,-100.00,SSE,154,1.0,6.0,66,0.00,,,0.01,0.000000,,2013-02-01 03:21:00,
2013-01-31 22:32:00,30.0,20.0,-100.00,SSE,154,1.0,6.0,66,0.00,,,0.01,0.000000,,2013-02-01 03:32:00,
2013-01-31 22:52:00,29.0,21.0,-100.00,ENE,75,5.0,7.0,73,0.00,,,0.01,0.000000,,2013-02-01 03:52:00,
2013-01-31 23:02:00,29.0,21.0,-100.00,ENE,75,5.0,7.0,73,0.00,,,0.01,0.000000,,2013-02-01 04:02:00,
2013-01-31 23:11:00,29.0,21.0,-100.00,ENE,75,5.0,7.0,73,0.00,,,0.01,0.000000,,2013-02-01 04:11:00,
2013-01-31 23:21:00,29.0,21.0,-100.00,ENE,75,5.0,7.0,73,0.00,,,0.01,0.000000,,2013-02-01 04:21:00,
2013-01-31 23:31:00,29.0,21.0,-100.00,ENE,75,5.0,7.0,73,0.00,,,0.01,0.000000,,2013-02-01 04:31:00,
2013-01-31 23:52:00,29.0,20.0,-100.00,East,97,5.0,7.0,70,0.00,,,0.01,0.000000,,2013-02-01 04:52:00,